createdAt,value
2024-02-12T00:01:56.478Z,80.95
2024-02-12T00:04:28.131Z,80.92
2024-02-12T00:06:58.518Z,80.91
2024-02-12T00:09:28.322Z,81.14
2024-02-12T00:11:58.336Z,81.05
2024-02-12T00:14:28.254Z,80.97
2024-02-12T00:17:06.161Z,81.00
2024-02-12T00:19:39.381Z,80.91
2024-02-12T00:22:11.558Z,80.95
2024-02-12T00:24:41.800Z,80.81
2024-02-12T00:27:12.547Z,80.95
2024-02-12T00:29:42.303Z,80.66
2024-02-12T00:32:12.401Z,80.68
2024-02-12T00:34:42.879Z,80.64
2024-02-12T00:37:14.862Z,80.67
2024-02-12T00:39:44.709Z,80.56
2024-02-12T00:42:14.532Z,80.66
2024-02-12T00:44:44.412Z,80.56
2024-02-12T00:47:14.281Z,80.62
2024-02-12T00:49:45.169Z,80.58
2024-02-12T00:52:19.465Z,80.62
2024-02-12T00:54:49.231Z,80.50
2024-02-12T00:57:22.062Z,80.58
2024-02-12T00:59:53.059Z,80.51
2024-02-12T01:02:23.763Z,80.58
2024-02-12T01:04:55.711Z,80.46
2024-02-12T01:07:26.302Z,80.44
2024-02-12T01:09:58.463Z,80.53
2024-02-12T01:12:28.240Z,80.36
2024-02-12T01:15:01.375Z,80.49
2024-02-12T01:17:33.070Z,80.38
2024-02-12T01:20:03.104Z,80.47
2024-02-12T01:22:34.509Z,80.54
2024-02-12T01:25:05.853Z,80.52
2024-02-12T01:27:35.603Z,80.32
2024-02-12T01:30:07.087Z,80.48
2024-02-12T01:32:36.884Z,80.34
2024-02-12T01:35:07.767Z,80.45
2024-02-12T01:37:37.711Z,80.46
2024-02-12T01:40:10.340Z,80.38
2024-02-12T01:42:40.058Z,80.51
2024-02-12T01:45:15.119Z,80.49
2024-02-12T01:47:52.247Z,80.30
2024-02-12T01:50:22.337Z,80.30
2024-02-12T01:52:53.614Z,80.33
2024-02-12T01:55:25.131Z,80.26
2024-02-12T01:57:55.670Z,80.40
2024-02-12T02:00:28.666Z,80.40
2024-02-12T02:02:59.196Z,80.38
2024-02-12T02:05:29.205Z,80.22
2024-02-12T02:08:02.080Z,80.19
2024-02-12T02:10:33.623Z,80.24
2024-02-12T02:13:04.740Z,80.18
2024-02-12T02:15:37.391Z,80.39
2024-02-12T02:18:12.628Z,80.38
2024-02-12T02:20:42.576Z,80.40
2024-02-12T02:23:12.730Z,80.48
2024-02-12T02:25:47.090Z,80.45
2024-02-12T02:28:16.992Z,80.37
2024-02-12T02:30:49.715Z,80.38
2024-02-12T02:33:19.773Z,80.37
2024-02-12T02:35:49.894Z,80.37
2024-02-12T02:38:19.938Z,80.57
2024-02-12T02:40:52.954Z,80.62
2024-02-12T02:43:22.788Z,80.58
2024-02-12T02:45:52.810Z,80.49
2024-02-12T02:48:28.276Z,80.60
2024-02-12T02:50:59.102Z,80.64
2024-02-12T02:53:29.010Z,80.74
2024-02-12T02:55:59.219Z,80.72
2024-02-12T02:58:28.976Z,80.83
2024-02-12T03:00:59.163Z,80.90
2024-02-12T03:03:29.526Z,80.79
2024-02-12T03:06:00.354Z,80.60
2024-02-12T03:08:31.441Z,80.56
2024-02-12T03:11:02.856Z,80.76
2024-02-12T03:13:32.961Z,80.69
2024-02-12T03:16:02.810Z,80.75
2024-02-12T03:18:32.721Z,80.97
2024-02-12T03:21:03.384Z,80.96
2024-02-12T03:23:35.354Z,80.93
2024-02-12T03:26:10.187Z,80.70
2024-02-12T03:28:38.606Z,80.78
2024-02-12T03:31:08.700Z,80.80
2024-02-12T03:33:38.713Z,80.80
2024-02-12T03:36:10.067Z,80.97
2024-02-12T03:38:42.468Z,80.93
2024-02-12T03:41:19.984Z,80.94
2024-02-12T03:43:54.100Z,80.92
2024-02-12T03:46:32.440Z,80.76
2024-02-12T03:49:23.246Z,80.67
2024-02-12T03:52:11.991Z,80.67
2024-02-12T03:55:02.408Z,80.62
2024-02-12T03:57:51.667Z,80.53
2024-02-12T04:00:24.063Z,80.66
2024-02-12T04:02:56.960Z,80.66
2024-02-12T04:05:28.468Z,80.48
2024-02-12T04:07:58.531Z,80.62
2024-02-12T04:10:29.526Z,80.62
2024-02-12T04:13:02.428Z,80.81
2024-02-12T04:15:32.258Z,80.83
2024-02-12T04:18:02.050Z,80.81
2024-02-12T04:20:34.810Z,80.73
2024-02-12T04:23:08.619Z,80.72
2024-02-12T04:25:40.994Z,80.47
2024-02-12T04:28:14.729Z,80.38
2024-02-12T04:30:48.703Z,80.46
2024-02-12T04:33:18.555Z,80.52
2024-02-12T04:35:50.893Z,80.39
2024-02-12T04:38:22.415Z,80.56
2024-02-12T04:40:52.357Z,80.42
2024-02-12T04:43:22.355Z,80.22
2024-02-12T04:45:55.589Z,80.35
2024-02-12T04:48:26.094Z,80.09
2024-02-12T04:50:56.673Z,80.09
2024-02-12T04:53:27.491Z,80.06
2024-02-12T04:55:57.428Z,80.12
2024-02-12T04:58:27.604Z,79.98
2024-02-12T05:00:59.748Z,80.11
2024-02-12T05:03:35.053Z,79.98
2024-02-12T05:06:08.173Z,79.97
2024-02-12T05:08:38.433Z,80.03
2024-02-12T05:11:08.306Z,79.94
2024-02-12T05:13:41.516Z,80.13
2024-02-12T05:16:11.349Z,80.24
2024-02-12T05:19:00.653Z,80.06
2024-02-12T05:21:49.464Z,80.10
2024-02-12T05:24:23.091Z,80.01
2024-02-12T05:26:52.923Z,80.12
2024-02-12T05:29:22.749Z,80.17
2024-02-12T05:31:52.933Z,80.31
2024-02-12T05:34:24.543Z,80.42
2024-02-12T05:36:55.180Z,80.31
2024-02-12T05:39:27.155Z,80.34
2024-02-12T05:41:57.013Z,80.17
2024-02-12T05:44:26.978Z,80.38
2024-02-12T05:46:56.966Z,80.23
2024-02-12T05:49:27.392Z,80.29
2024-02-12T05:51:58.254Z,80.37
2024-02-12T05:54:28.688Z,80.36
2024-02-12T05:56:59.014Z,80.42
2024-02-12T05:59:28.837Z,80.48
2024-02-12T06:01:58.607Z,80.38
2024-02-12T06:04:28.356Z,80.44
2024-02-12T06:06:58.368Z,80.47
2024-02-12T06:09:31.551Z,80.36
2024-02-12T06:12:01.348Z,80.34
2024-02-12T06:14:31.613Z,80.42
2024-02-12T06:17:01.990Z,80.30
2024-02-12T06:19:31.822Z,80.26
2024-02-12T06:22:02.447Z,80.25
2024-02-12T06:24:32.979Z,80.32
2024-02-12T06:27:02.883Z,80.39
2024-02-12T06:29:32.785Z,80.49
2024-02-12T06:32:02.720Z,80.48
2024-02-12T06:34:34.709Z,80.57
2024-02-12T06:37:04.786Z,80.52
2024-02-12T06:39:34.577Z,80.38
2024-02-12T06:42:07.613Z,80.46
2024-02-12T06:44:37.740Z,80.50
2024-02-12T06:47:11.015Z,80.34
2024-02-12T06:49:44.191Z,80.49
2024-02-12T06:52:17.435Z,80.34
2024-02-12T06:54:49.137Z,80.43
2024-02-12T06:57:19.237Z,80.42
2024-02-12T06:59:49.152Z,80.36
2024-02-12T07:02:21.231Z,80.26
2024-02-12T07:04:51.104Z,80.33
2024-02-12T07:07:21.055Z,80.38
2024-02-12T07:09:55.307Z,80.27
2024-02-12T07:12:25.082Z,80.40
2024-02-12T07:14:55.057Z,80.37
2024-02-12T07:17:27.498Z,80.28
2024-02-12T07:20:00.248Z,80.31
2024-02-12T07:22:32.984Z,80.36
2024-02-12T07:25:06.394Z,80.39
2024-02-12T07:27:38.010Z,80.36
2024-02-12T07:30:10.159Z,80.20
2024-02-12T07:32:42.658Z,80.17
2024-02-12T07:35:12.821Z,80.17
2024-02-12T07:37:45.462Z,80.05
2024-02-12T07:40:18.557Z,80.06
2024-02-12T07:42:49.246Z,80.22
2024-02-12T07:45:19.094Z,80.19
2024-02-12T07:47:51.733Z,80.24
2024-02-12T07:50:21.926Z,80.29
2024-02-12T07:52:54.609Z,80.10
2024-02-12T07:55:25.768Z,80.09
2024-02-12T07:57:59.622Z,80.02
2024-02-12T08:00:29.782Z,80.12
2024-02-12T08:03:02.150Z,80.01
2024-02-12T08:05:36.321Z,80.24
2024-02-12T08:08:09.228Z,80.19
2024-02-12T08:10:39.177Z,80.29
2024-02-12T08:13:09.398Z,80.31
2024-02-12T08:15:40.213Z,80.11
2024-02-12T08:18:10.275Z,80.19
2024-02-12T08:20:40.676Z,80.15
2024-02-12T08:23:10.989Z,80.38
2024-02-12T08:25:41.036Z,80.33
2024-02-12T08:28:11.002Z,80.57
2024-02-12T08:30:42.941Z,80.45
2024-02-12T08:33:15.248Z,80.50
2024-02-12T08:35:45.172Z,80.20
2024-02-12T08:38:15.153Z,80.33
2024-02-12T08:40:45.298Z,80.37
2024-02-12T08:43:16.321Z,80.41
2024-02-12T08:45:49.130Z,80.75
2024-02-12T08:48:19.015Z,80.49
2024-02-12T08:50:51.657Z,80.41
2024-02-12T08:53:23.642Z,80.54
2024-02-12T08:55:56.300Z,80.30
2024-02-12T08:58:26.111Z,80.33
2024-02-12T09:00:58.327Z,80.46
2024-02-12T09:03:28.143Z,80.43
2024-02-12T09:05:57.999Z,80.44
2024-02-12T09:08:27.774Z,80.47
2024-02-12T09:11:00.412Z,80.48
2024-02-12T09:13:32.420Z,80.40
2024-02-12T09:16:02.203Z,80.43
2024-02-12T09:18:32.145Z,80.40
2024-02-12T09:21:04.080Z,80.23
2024-02-12T09:23:34.474Z,80.35
2024-02-12T09:26:07.103Z,80.46
2024-02-12T09:28:39.625Z,80.41
2024-02-12T09:31:09.976Z,80.32
2024-02-12T09:33:39.840Z,80.21
2024-02-12T09:36:10.258Z,80.25
2024-02-12T09:38:40.170Z,80.29
2024-02-12T09:41:12.390Z,80.41
2024-02-12T09:43:47.773Z,80.46
2024-02-12T09:46:20.191Z,80.45
2024-02-12T09:48:50.464Z,80.43
2024-02-12T09:51:25.035Z,80.38
2024-02-12T09:53:56.991Z,80.18
2024-02-12T09:56:27.611Z,80.05
2024-02-12T09:58:57.893Z,80.21
2024-02-12T10:01:28.982Z,80.00
2024-02-12T10:03:59.368Z,80.20
2024-02-12T10:06:31.775Z,79.88
2024-02-12T10:09:09.515Z,79.88
2024-02-12T10:11:41.059Z,79.73
2024-02-12T10:14:13.069Z,79.84
2024-02-12T10:16:43.790Z,79.85
2024-02-12T10:19:13.618Z,79.85
2024-02-12T10:21:43.419Z,79.82
2024-02-12T10:24:13.563Z,79.96
2024-02-12T10:26:44.057Z,79.96
2024-02-12T10:29:15.233Z,79.84
2024-02-12T10:31:45.594Z,79.98
2024-02-12T10:34:21.661Z,79.72
2024-02-12T10:36:58.895Z,79.71
2024-02-12T10:39:31.785Z,79.61
2024-02-12T10:42:27.972Z,79.52
2024-02-12T10:45:03.764Z,79.52
2024-02-12T10:47:36.990Z,79.32
2024-02-12T10:50:14.738Z,79.69
2024-02-12T10:52:47.767Z,79.51
2024-02-12T10:55:18.127Z,79.48
2024-02-12T10:57:48.361Z,79.30
2024-02-12T11:00:29.590Z,79.69
2024-02-12T11:02:58.089Z,79.25
2024-02-12T11:05:31.907Z,79.21
2024-02-12T11:08:09.817Z,79.12
2024-02-12T11:10:45.107Z,78.70
2024-02-12T11:13:20.718Z,78.95
2024-02-12T11:15:54.396Z,79.11
2024-02-12T11:18:34.579Z,78.70
2024-02-12T11:21:09.649Z,78.74
2024-02-12T11:23:41.852Z,78.69
2024-02-12T11:26:16.085Z,78.63
2024-02-12T11:28:54.335Z,78.48
2024-02-12T11:31:30.095Z,78.12
2024-02-12T11:34:03.432Z,78.45
2024-02-12T11:36:34.492Z,78.22
2024-02-12T11:39:08.430Z,78.61
2024-02-12T11:41:39.251Z,78.37
2024-02-12T11:44:09.470Z,78.33
2024-02-12T11:46:42.189Z,78.36
2024-02-12T11:49:13.998Z,78.16
2024-02-12T11:51:43.790Z,78.24
2024-02-12T11:54:15.263Z,77.98
2024-02-12T11:56:46.190Z,78.18
2024-02-12T11:59:19.897Z,78.15
2024-02-12T12:01:50.172Z,78.42
2024-02-12T12:04:20.229Z,78.15
2024-02-12T12:06:52.171Z,78.31
2024-02-12T12:09:25.114Z,78.13
2024-02-12T12:11:55.307Z,77.92
2024-02-12T12:14:26.960Z,77.80
2024-02-12T12:17:28.347Z,77.87
2024-02-12T12:19:48.349Z,77.64
2024-02-12T12:22:21.887Z,77.59
2024-02-12T12:24:54.850Z,77.65
2024-02-12T12:27:28.354Z,77.53
2024-02-12T12:30:14.220Z,77.13
2024-02-12T12:32:44.954Z,76.92
2024-02-12T12:35:17.855Z,76.67
2024-02-12T12:37:48.222Z,76.30
2024-02-12T12:40:21.274Z,76.71
2024-02-12T12:42:54.265Z,76.92
2024-02-12T12:45:26.078Z,76.81
2024-02-12T12:47:56.137Z,76.84
2024-02-12T12:50:27.791Z,76.70
2024-02-12T12:52:57.804Z,76.31
2024-02-12T12:55:30.546Z,76.39
2024-02-12T12:58:03.328Z,76.36
2024-02-12T13:00:37.382Z,76.20
2024-02-12T13:03:09.926Z,76.03
2024-02-12T13:05:42.660Z,75.80
2024-02-12T13:08:19.682Z,75.91
2024-02-12T13:10:52.775Z,75.82
2024-02-12T13:13:25.014Z,75.47
2024-02-12T13:15:54.775Z,75.34
2024-02-12T13:18:31.306Z,75.39
2024-02-12T13:21:03.752Z,75.29
2024-02-12T13:23:33.741Z,74.89
2024-02-12T13:26:13.487Z,74.48
2024-02-12T13:28:43.945Z,74.69
2024-02-12T13:31:16.013Z,74.48
2024-02-12T13:33:46.284Z,74.39
2024-02-12T13:36:16.705Z,74.95
2024-02-12T13:38:47.292Z,74.98
2024-02-12T13:41:17.687Z,74.52
2024-02-12T13:43:49.541Z,74.78
2024-02-12T13:46:36.564Z,74.48
2024-02-12T13:49:14.164Z,74.28
2024-02-12T13:51:48.100Z,74.02
2024-02-12T13:54:17.965Z,74.02
2024-02-12T13:56:50.044Z,74.02
2024-02-12T13:59:19.854Z,73.94
2024-02-12T14:01:55.898Z,73.85
2024-02-12T14:04:30.710Z,73.69
2024-02-12T14:07:00.766Z,73.64
2024-02-12T14:09:31.150Z,73.69
2024-02-12T14:12:01.606Z,73.64
2024-02-12T14:14:31.415Z,73.37
2024-02-12T14:17:01.325Z,72.74
2024-02-12T14:19:31.334Z,73.09
2024-02-12T14:22:01.259Z,73.01
2024-02-12T14:24:33.308Z,72.81
2024-02-12T14:27:07.539Z,72.67
2024-02-12T14:29:39.195Z,72.37
2024-02-12T14:32:38.283Z,72.53
2024-02-12T14:34:59.315Z,72.19
2024-02-12T14:37:29.761Z,72.82
2024-02-12T14:40:02.574Z,72.92
2024-02-12T14:42:34.939Z,72.49
2024-02-12T14:45:06.800Z,72.61
2024-02-12T14:47:42.424Z,72.58
2024-02-12T14:50:20.009Z,72.55
2024-02-12T14:52:54.542Z,72.59
2024-02-12T14:55:24.350Z,72.31
2024-02-12T14:57:58.983Z,72.26
2024-02-12T15:00:29.371Z,72.57
2024-02-12T15:03:01.658Z,72.58
2024-02-12T15:05:31.481Z,72.43
2024-02-12T15:08:01.550Z,72.32
2024-02-12T15:10:36.325Z,72.27
2024-02-12T15:13:06.580Z,72.46
2024-02-12T15:15:40.992Z,72.11
2024-02-12T15:18:13.795Z,72.44
2024-02-12T15:20:47.439Z,72.30
2024-02-12T15:23:17.807Z,72.35
2024-02-12T15:25:47.664Z,72.23
2024-02-12T15:28:18.038Z,72.39
2024-02-12T15:30:49.785Z,72.27
2024-02-12T15:33:20.333Z,72.63
2024-02-12T15:35:51.889Z,72.29
2024-02-12T15:38:23.529Z,72.47
2024-02-12T15:40:55.764Z,72.14
2024-02-12T15:43:26.817Z,72.28
2024-02-12T15:45:59.533Z,72.62
2024-02-12T15:48:29.642Z,72.49
2024-02-12T15:51:01.159Z,72.70
2024-02-12T15:53:31.526Z,72.57
2024-02-12T15:56:06.097Z,72.54
2024-02-12T15:58:38.379Z,72.30
2024-02-12T16:01:09.877Z,72.28
2024-02-12T16:03:42.515Z,72.68
2024-02-12T16:06:16.094Z,72.48
2024-02-12T16:08:46.349Z,72.32
2024-02-12T16:11:19.837Z,72.63
2024-02-12T16:13:53.653Z,72.26
2024-02-12T16:16:27.866Z,72.64
2024-02-12T16:19:01.529Z,73.00
2024-02-12T16:21:33.810Z,72.94
2024-02-12T16:24:03.846Z,73.04
2024-02-12T16:26:34.078Z,72.77
2024-02-12T16:29:06.482Z,73.09
2024-02-12T16:31:40.970Z,72.84
2024-02-12T16:34:11.338Z,72.97
2024-02-12T16:36:43.854Z,73.04
2024-02-12T16:39:15.567Z,73.33
2024-02-12T16:41:45.993Z,73.29
2024-02-12T16:44:15.918Z,73.48
2024-02-12T16:46:46.591Z,73.41
2024-02-12T16:49:16.838Z,73.34
2024-02-12T16:51:51.011Z,73.33
2024-02-12T16:54:21.132Z,72.98
2024-02-12T16:56:53.716Z,73.09
2024-02-12T16:59:26.133Z,72.91
2024-02-12T17:01:56.035Z,73.06
2024-02-12T17:04:26.127Z,72.97
2024-02-12T17:06:56.099Z,73.06
2024-02-12T17:09:26.317Z,73.38
2024-02-12T17:11:56.165Z,73.35
2024-02-12T17:14:28.500Z,73.29
2024-02-12T17:16:58.326Z,73.29
2024-02-12T17:19:28.313Z,73.48
2024-02-12T17:21:58.074Z,73.38
2024-02-12T17:24:27.887Z,73.36
2024-02-12T17:26:57.636Z,73.29
2024-02-12T17:29:28.492Z,73.50
2024-02-12T17:31:58.919Z,73.27
2024-02-12T17:34:31.210Z,73.01
2024-02-12T17:37:01.357Z,73.14
2024-02-12T17:39:36.826Z,73.16
2024-02-12T17:42:10.116Z,73.16
2024-02-12T17:44:39.846Z,73.13
2024-02-12T17:47:12.415Z,73.22
2024-02-12T17:49:49.252Z,73.00
2024-02-12T17:52:25.054Z,73.08
2024-02-12T17:54:54.850Z,73.17
2024-02-12T17:57:27.289Z,73.30
2024-02-12T17:59:57.287Z,73.28
2024-02-12T18:02:27.423Z,73.43
2024-02-12T18:04:59.298Z,73.47
2024-02-12T18:07:32.715Z,73.58
2024-02-12T18:10:02.461Z,73.71
2024-02-12T18:12:35.528Z,73.88
2024-02-12T18:15:06.220Z,73.91
2024-02-12T18:17:39.019Z,73.72
2024-02-12T18:20:14.981Z,73.95
2024-02-12T18:22:44.843Z,73.92
2024-02-12T18:25:15.838Z,73.83
2024-02-12T18:27:46.822Z,73.89
2024-02-12T18:30:17.271Z,73.99
2024-02-12T18:32:49.170Z,74.26
2024-02-12T18:35:19.316Z,74.23
2024-02-12T18:37:51.407Z,74.21
2024-02-12T18:40:22.753Z,74.18
2024-02-12T18:42:54.979Z,74.33
2024-02-12T18:45:26.398Z,74.28
2024-02-12T18:48:00.799Z,74.58
2024-02-12T18:50:30.816Z,74.59
2024-02-12T18:53:02.140Z,74.71
2024-02-12T18:55:35.615Z,74.71
2024-02-12T18:58:07.983Z,74.61
2024-02-12T19:00:40.934Z,74.61
2024-02-12T19:03:11.584Z,74.62
2024-02-12T19:05:43.246Z,74.62
2024-02-12T19:08:16.751Z,74.62
2024-02-12T19:10:49.200Z,74.78
2024-02-12T19:13:21.214Z,74.92
2024-02-12T19:15:51.986Z,74.83
2024-02-12T19:18:25.321Z,74.94
2024-02-12T19:20:59.722Z,75.14
2024-02-12T19:23:29.500Z,75.43
2024-02-12T19:26:00.617Z,75.30
2024-02-12T19:28:30.786Z,75.35
2024-02-12T19:31:00.677Z,75.19
2024-02-12T19:33:31.270Z,75.02
2024-02-12T19:36:01.457Z,74.99
2024-02-12T19:38:31.300Z,75.03
2024-02-12T19:41:01.112Z,75.27
2024-02-12T19:43:30.943Z,75.19
2024-02-12T19:46:00.821Z,75.37
2024-02-12T19:48:31.149Z,75.34
2024-02-12T19:51:01.107Z,75.52
2024-02-12T19:53:31.174Z,75.39
2024-02-12T19:56:05.138Z,75.62
2024-02-12T19:58:35.581Z,75.60
2024-02-12T20:01:07.768Z,75.57
2024-02-12T20:03:37.978Z,75.47
2024-02-12T20:06:11.001Z,75.53
2024-02-12T20:08:42.480Z,75.55
2024-02-12T20:11:13.294Z,75.60
2024-02-12T20:13:45.368Z,75.58
2024-02-12T20:16:17.977Z,75.53
2024-02-12T20:18:47.955Z,75.61
2024-02-12T20:21:20.600Z,75.73
2024-02-12T20:23:50.485Z,75.89
2024-02-12T20:26:22.366Z,75.98
2024-02-12T20:28:54.772Z,75.85
2024-02-12T20:31:24.615Z,75.97
2024-02-12T20:33:54.696Z,76.15
2024-02-12T20:36:26.741Z,76.21
2024-02-12T20:38:56.622Z,76.30
2024-02-12T20:41:26.475Z,76.17
2024-02-12T20:43:56.267Z,76.27
2024-02-12T20:46:31.855Z,76.21
2024-02-12T20:49:07.701Z,76.24
2024-02-12T20:51:40.049Z,76.17
2024-02-12T20:54:12.661Z,76.21
2024-02-12T20:56:43.564Z,76.43
2024-02-12T20:59:14.309Z,76.58
2024-02-12T21:01:45.070Z,76.76
2024-02-12T21:04:14.890Z,76.66
2024-02-12T21:06:46.985Z,76.81
2024-02-12T21:09:19.971Z,77.01
2024-02-12T21:11:49.862Z,77.07
2024-02-12T21:14:24.423Z,76.95
2024-02-12T21:16:56.795Z,76.98
2024-02-12T21:19:28.710Z,77.34
2024-02-12T21:21:58.661Z,77.30
2024-02-12T21:24:28.482Z,77.30
2024-02-12T21:27:00.617Z,77.52
2024-02-12T21:29:30.663Z,77.40
2024-02-12T21:32:01.612Z,77.52
2024-02-12T21:34:36.430Z,77.41
2024-02-12T21:37:11.645Z,77.48
2024-02-12T21:39:47.041Z,77.63
2024-02-12T21:42:27.956Z,77.64
2024-02-12T21:44:59.904Z,77.81
2024-02-12T21:47:29.989Z,77.91
2024-02-12T21:49:59.960Z,77.91
2024-02-12T21:52:29.755Z,77.82
2024-02-12T21:54:59.484Z,78.04
2024-02-12T21:57:32.475Z,77.82
2024-02-12T22:00:08.445Z,77.89
2024-02-12T22:02:42.858Z,77.86
2024-02-12T22:05:12.914Z,78.10
2024-02-12T22:07:45.684Z,78.21
2024-02-12T22:10:17.686Z,78.17
2024-02-12T22:12:47.529Z,78.07
2024-02-12T22:15:17.494Z,78.01
2024-02-12T22:17:47.399Z,78.13
2024-02-12T22:20:20.047Z,77.99
2024-02-12T22:22:50.113Z,78.04
2024-02-12T22:25:22.144Z,78.20
2024-02-12T22:27:57.159Z,77.92
2024-02-12T22:30:25.418Z,78.08
2024-02-12T22:32:59.049Z,78.21
2024-02-12T22:35:29.888Z,78.33
2024-02-12T22:38:00.083Z,78.07
2024-02-12T22:40:30.086Z,78.15
2024-02-12T22:42:59.954Z,78.28
2024-02-12T22:45:29.699Z,78.29
2024-02-12T22:48:02.583Z,78.40
2024-02-12T22:50:35.504Z,78.33
2024-02-12T22:53:05.698Z,78.54
2024-02-12T22:55:35.525Z,78.65
2024-02-12T22:58:09.564Z,78.52
2024-02-12T23:00:42.472Z,78.57
2024-02-12T23:03:14.257Z,78.59
2024-02-12T23:05:46.472Z,78.67
2024-02-12T23:08:16.794Z,78.90
2024-02-12T23:10:46.879Z,78.83
2024-02-12T23:13:18.169Z,78.90
2024-02-12T23:15:48.040Z,79.01
2024-02-12T23:18:18.565Z,78.94
2024-02-12T23:20:49.018Z,78.82
2024-02-12T23:23:18.929Z,78.67
2024-02-12T23:25:51.431Z,78.82
2024-02-12T23:28:23.916Z,78.92
2024-02-12T23:30:56.003Z,78.93
2024-02-12T23:33:26.855Z,78.82
2024-02-12T23:35:57.031Z,78.91
2024-02-12T23:38:30.653Z,78.79
2024-02-12T23:41:00.480Z,78.90
2024-02-12T23:43:30.791Z,78.72
2024-02-12T23:46:01.005Z,78.76
2024-02-12T23:48:32.722Z,79.02
2024-02-12T23:51:08.618Z,79.18
2024-02-12T23:53:42.826Z,79.02
2024-02-12T23:56:24.115Z,79.23
2024-02-12T23:58:54.169Z,79.20
